Time;durP1;ratioP1;P1;durP2;ratioP2;P2;SDS_P1;SDS_P2;PMS_P1;PMS_P2;Temp;Humidity;BMP_temperature;BMP_pressure;BME280_temperature;BME280_humidity;BME280_pressure;Samples;Min_cycle;Max_cycle;Signal;HPM_P1;HPM_P2
2022/01/08 00:02:26;;;;;;;0.20;0.20;;;;;;;-0.25;100.00;100144.13;5053656;28;20610;-81
2022/01/08 00:05:01;;;;;;;0.20;0.20;;;;;;;-0.26;100.00;100127.28;5051359;28;20059;-80
2022/01/08 00:07:34;;;;;;;0.20;0.20;;;;;;;-0.13;100.00;100125.50;5057976;28;20044;-81
2022/01/08 00:10:03;;;;;;;0.20;0.20;;;;;;;-0.12;100.00;100132.50;5051640;28;20045;-81
2022/01/08 00:12:36;;;;;;;0.20;0.20;;;;;;;-0.12;100.00;100129.81;5052503;28;20049;-81
2022/01/08 00:15:10;;;;;;;0.20;0.20;;;;;;;0.01;100.00;100147.56;5048170;28;20408;-81
2022/01/08 00:17:38;;;;;;;0.20;0.20;;;;;;;0.01;100.00;100151.06;5051141;28;20071;-80
2022/01/08 00:20:15;;;;;;;0.20;0.20;;;;;;;0.04;100.00;100147.13;5050228;28;20591;-82
2022/01/08 00:22:43;;;;;;;0.20;0.20;;;;;;;0.03;100.00;100143.63;5050071;28;20053;-82
2022/01/08 00:25:16;;;;;;;0.10;0.10;;;;;;;0.07;100.00;100144.00;5036485;28;20406;-82
2022/01/08 00:27:50;;;;;;;0.20;0.20;;;;;;;0.07;100.00;100135.97;5042377;28;20056;-81
2022/01/08 00:30:18;;;;;;;0.20;0.20;;;;;;;0.05;100.00;100138.88;5057679;28;20506;-82
2022/01/08 00:32:51;;;;;;;0.20;0.20;;;;;;;0.16;100.00;100139.97;5049246;28;20045;-81
2022/01/08 00:35:26;;;;;;;0.10;0.10;;;;;;;0.11;100.00;100147.84;5039710;28;20051;-80
2022/01/08 00:37:59;;;;;;;0.20;0.20;;;;;;;0.20;100.00;100157.22;5045896;28;20056;-80
2022/01/08 00:40:33;;;;;;;0.10;0.10;;;;;;;0.20;100.00;100153.75;5041163;28;20060;-81
2022/01/08 00:43:06;;;;;;;0.17;0.17;;;;;;;0.15;100.00;100149.88;5052627;28;20413;-80
2022/01/08 00:45:39;;;;;;;0.20;0.20;;;;;;;0.19;100.00;100155.59;5044642;28;20045;-81
2022/01/08 00:48:12;;;;;;;0.20;0.20;;;;;;;0.25;100.00;100145.84;5047908;28;20052;-81
2022/01/08 00:50:42;;;;;;;0.20;0.20;;;;;;;0.24;100.00;100146.91;5047998;28;20048;-81
2022/01/08 00:53:10;;;;;;;0.10;0.10;;;;;;;0.30;100.00;100138.78;5057041;28;20053;-81
2022/01/08 00:55:44;;;;;;;0.20;0.20;;;;;;;0.29;100.00;100139.00;5051601;28;20052;-81
2022/01/08 00:58:12;;;;;;;0.20;0.20;;;;;;;0.22;100.00;100139.09;5050495;28;20052;-81
2022/01/08 01:00:45;;;;;;;0.20;0.20;;;;;;;0.27;100.00;100133.88;5048314;28;20045;-81
2022/01/08 01:03:18;;;;;;;0.10;0.10;;;;;;;0.30;100.00;100130.75;5060373;28;20052;-81
2022/01/08 01:05:53;;;;;;;0.20;0.20;;;;;;;0.30;100.00;100132.59;5055190;28;20049;-81
2022/01/08 01:08:26;;;;;;;0.20;0.20;;;;;;;0.26;100.00;100131.41;5050417;28;20064;-81
2022/01/08 01:10:59;;;;;;;0.20;0.20;;;;;;;0.31;100.00;100115.50;5050982;28;20045;-81
2022/01/08 01:13:27;;;;;;;0.10;0.10;;;;;;;0.28;100.00;100132.84;5070565;28;20045;-81
2022/01/08 01:15:58;;;;;;;0.20;0.20;;;;;;;0.28;100.00;100134.69;5047788;28;20075;-81
2022/01/08 01:18:32;;;;;;;0.20;0.20;;;;;;;0.25;100.00;100135.97;5051096;28;20036;-81
2022/01/08 01:21:07;;;;;;;0.20;0.20;;;;;;;0.25;100.00;100133.28;5052939;28;20037;-81
2022/01/08 01:23:39;;;;;;;0.30;0.30;;;;;;;0.30;100.00;100136.13;5046298;28;20060;-81
2022/01/08 01:26:17;;;;;;;0.22;0.22;;;;;;;0.29;100.00;100137.16;5047126;28;20053;-81
2022/01/08 01:28:56;;;;;;;0.20;0.20;;;;;;;0.30;100.00;100141.47;5041952;28;20486;-81
2022/01/08 01:43:04;;;;;;;0.20;0.20;;;;;;;0.30;100.00;100143.31;5046691;28;20705;-81
2022/01/08 01:48:17;;;;;;;0.20;0.20;;;;;;;0.40;100.00;100137.41;5049429;28;20481;-81
2022/01/08 01:50:50;;;;;;;0.10;0.10;;;;;;;0.33;100.00;100143.69;5050175;28;20048;-80
2022/01/08 01:53:24;;;;;;;0.13;0.13;;;;;;;0.25;100.00;100135.97;5045632;28;20409;-81
2022/01/08 01:55:58;;;;;;;0.20;0.20;;;;;;;0.26;100.00;100131.41;5041473;28;20049;-81
2022/01/08 01:58:26;;;;;;;0.10;0.10;;;;;;;0.26;100.00;100136.78;5047463;28;20052;-81
2022/01/08 02:01:01;;;;;;;0.10;0.10;;;;;;;0.24;100.00;100138.88;5044418;28;20048;-81
2022/01/08 02:03:35;;;;;;;0.20;0.20;;;;;;;0.36;100.00;100134.41;5049222;28;20049;-81
2022/01/08 02:06:09;;;;;;;0.10;0.10;;;;;;;0.33;100.00;100145.53;5058205;28;20041;-81
2022/01/08 02:08:43;;;;;;;0.20;0.20;;;;;;;0.24;100.00;100137.00;5046738;28;20049;-81
2022/01/08 02:11:18;;;;;;;0.20;0.20;;;;;;;0.21;100.00;100133.94;5047890;28;20049;-80
2022/01/08 02:13:52;;;;;;;0.20;0.20;;;;;;;0.33;100.00;100148.22;5043756;28;20052;-81
2022/01/08 02:16:27;;;;;;;0.10;0.10;;;;;;;0.27;100.00;100144.56;5038443;28;20497;-81
2022/01/08 02:19:00;;;;;;;0.20;0.20;;;;;;;0.33;100.00;100145.53;5044881;28;20060;-82
2022/01/08 02:21:29;;;;;;;0.10;0.10;;;;;;;0.36;100.00;100133.56;5045436;28;20053;-81
2022/01/08 02:24:03;;;;;;;0.20;0.20;;;;;;;0.31;100.00;100143.09;5065899;28;20049;-82
2022/01/08 02:26:36;;;;;;;0.20;0.20;;;;;;;0.23;100.00;100140.72;5051525;28;20041;-81
2022/01/08 02:29:11;;;;;;;0.10;0.10;;;;;;;0.23;100.00;100138.03;5048857;28;20052;-81
2022/01/08 02:31:40;;;;;;;0.20;0.20;;;;;;;0.26;100.00;100148.31;5051713;28;20060;-81
2022/01/08 02:34:13;;;;;;;0.20;0.20;;;;;;;0.24;100.00;100141.53;5051257;28;20099;-81
2022/01/08 02:36:48;;;;;;;0.10;0.10;;;;;;;0.22;100.00;100147.13;5044218;28;20057;-82
2022/01/08 02:39:21;;;;;;;0.17;0.17;;;;;;;0.23;100.00;100146.06;5048606;28;20049;-81
2022/01/08 02:41:58;;;;;;;0.20;0.20;;;;;;;0.22;100.00;100140.94;5045825;28;20049;-80
2022/01/08 02:44:31;;;;;;;0.20;0.20;;;;;;;0.23;100.00;100130.00;5043480;28;20049;-79
2022/01/08 02:46:59;;;;;;;0.10;0.10;;;;;;;0.14;100.00;100121.47;5046027;28;20052;-81
2022/01/08 02:49:34;;;;;;;0.20;0.20;;;;;;;0.27;100.00;100141.09;5049555;28;20045;-81
2022/01/08 02:52:05;;;;;;;0.17;0.17;;;;;;;0.31;100.00;100140.41;5051187;28;20053;-81
2022/01/08 02:54:33;;;;;;;0.20;0.20;;;;;;;0.34;100.00;100134.59;5041339;28;20045;-80
2022/01/08 02:57:06;;;;;;;0.20;0.20;;;;;;;0.25;100.00;100132.44;5048328;28;20049;-80
2022/01/08 02:59:35;;;;;;;0.20;0.20;;;;;;;0.22;100.00;100130.22;5050946;28;20064;-80
2022/01/08 03:02:08;;;;;;;0.20;0.20;;;;;;;0.23;100.00;100135.34;5046723;28;20044;-81
2022/01/08 03:04:41;;;;;;;0.20;0.20;;;;;;;0.14;100.00;100142.88;5043422;28;20056;-81
2022/01/08 03:07:16;;;;;;;0.17;0.17;;;;;;;0.19;100.00;100130.69;5050733;28;20044;-81
2022/01/08 03:09:56;;;;;;;0.20;0.20;;;;;;;0.17;100.00;100133.59;5049234;28;20060;-81
2022/01/08 03:12:27;;;;;;;0.20;0.20;;;;;;;0.23;100.00;100131.88;5046694;28;20060;-81
2022/01/08 03:15:00;;;;;;;0.20;0.20;;;;;;;0.29;100.00;100129.13;5048869;28;20048;-81
2022/01/08 03:17:34;;;;;;;0.20;0.20;;;;;;;0.19;100.00;100123.47;5037433;28;20505;-81
2022/01/08 03:20:11;;;;;;;0.10;0.10;;;;;;;0.11;100.00;100132.63;5048620;28;20047;-81
2022/01/08 03:22:42;;;;;;;0.25;0.25;;;;;;;0.15;100.00;100133.81;5040631;28;20044;-81
2022/01/08 03:25:11;;;;;;;0.10;0.10;;;;;;;0.16;100.00;100122.06;5043300;28;20684;-81
2022/01/08 03:27:48;;;;;;;0.20;0.20;;;;;;;0.15;100.00;100127.63;5052049;28;20053;-81
2022/01/08 03:30:22;;;;;;;0.13;0.13;;;;;;;0.20;100.00;100130.47;5052772;28;20053;-81
2022/01/08 03:32:51;;;;;;;0.10;0.10;;;;;;;0.28;100.00;100135.50;5048098;28;20277;-81
2022/01/08 03:35:19;;;;;;;0.20;0.20;;;;;;;0.17;100.00;100133.59;5052030;28;20049;-81
2022/01/08 03:37:49;;;;;;;0.10;0.10;;;;;;;0.24;100.00;100136.19;5049892;28;20048;-81
2022/01/08 03:40:22;;;;;;;0.20;0.20;;;;;;;0.11;100.00;100119.25;5050714;28;20052;-80
2022/01/08 03:42:55;;;;;;;0.20;0.20;;;;;;;0.09;100.00;100115.16;5043911;28;20052;-81
2022/01/08 03:45:29;;;;;;;0.20;0.20;;;;;;;0.09;100.00;100132.03;5049163;28;20112;-80
2022/01/08 03:48:25;;;;;;;0.20;0.20;;;;;;;0.10;100.00;100127.50;5050601;28;20112;-81
2022/01/08 03:50:54;;;;;;;0.10;0.10;;;;;;;0.16;100.00;100131.94;5052454;28;20068;-80
2022/01/08 03:53:29;;;;;;;0.20;0.20;;;;;;;0.23;100.00;100134.56;5055205;28;20068;-82
2022/01/08 03:56:02;;;;;;;0.20;0.20;;;;;;;0.13;100.00;100140.44;5047369;28;20060;-81
2022/01/08 03:58:30;;;;;;;0.20;0.20;;;;;;;0.23;100.00;100135.34;5047364;28;20060;-81
2022/01/08 04:01:04;;;;;;;0.10;0.10;;;;;;;0.16;100.00;100140.78;5041808;28;20072;-80
2022/01/08 04:03:37;;;;;;;0.10;0.10;;;;;;;0.26;100.00;100136.78;5046487;28;20045;-81
2022/01/08 04:06:10;;;;;;;0.20;0.20;;;;;;;0.23;100.00;100150.59;5040916;28;20052;-81
2022/01/08 04:08:40;;;;;;;0.20;0.20;;;;;;;0.11;100.00;100137.16;5042994;28;20045;-80
2022/01/08 04:11:08;;;;;;;0.20;0.20;;;;;;;0.13;100.00;100132.41;5047364;28;20045;-80
2022/01/08 04:13:40;;;;;;;0.20;0.20;;;;;;;0.23;100.00;100143.38;5050491;28;20045;-81
2022/01/08 04:16:17;;;;;;;0.20;0.20;;;;;;;0.11;100.00;100138.00;5042955;28;20053;-81
2022/01/08 04:18:51;;;;;;;0.15;0.15;;;;;;;0.18;100.00;100132.56;5045665;28;20413;-81
2022/01/08 04:24:10;;;;;;;0.20;0.20;;;;;;;0.12;100.00;100133.44;5031888;28;20049;-81
2022/01/08 04:26:43;;;;;;;0.20;0.20;;;;;;;0.23;100.00;100140.72;5046229;28;20052;-81
2022/01/08 04:29:11;;;;;;;0.10;0.10;;;;;;;0.16;100.00;100134.63;5049554;28;20052;-80
2022/01/08 04:31:39;;;;;;;0.10;0.10;;;;;;;0.06;100.00;100134.34;5053119;28;20044;-81
2022/01/08 04:34:07;;;;;;;0.20;0.20;;;;;;;0.11;100.00;100126.44;5055910;28;20048;-81
2022/01/08 04:36:41;;;;;;;0.20;0.20;;;;;;;0.07;100.00;100111.88;5050881;28;20049;-81
2022/01/08 04:39:15;;;;;;;0.20;0.20;;;;;;;0.10;100.00;100127.50;5050809;28;20049;-81
2022/01/08 04:41:44;;;;;;;0.20;0.20;;;;;;;0.10;100.00;100124.84;5043063;28;20382;-81
2022/01/08 04:44:17;;;;;;;0.20;0.20;;;;;;;0.07;100.00;100119.91;5053880;28;20421;-81
2022/01/08 04:46:51;;;;;;;0.20;0.20;;;;;;;0.06;100.00;100124.44;5060853;28;20056;-81
2022/01/08 04:49:24;;;;;;;0.10;0.10;;;;;;;0.06;100.00;100123.66;5049239;28;20053;-80
2022/01/08 04:51:57;;;;;;;0.20;0.20;;;;;;;0.04;100.00;100118.50;5047992;28;20123;-81
2022/01/08 04:54:32;;;;;;;0.20;0.20;;;;;;;0.05;100.00;100112.13;5048363;28;20049;-81
2022/01/08 04:57:00;;;;;;;0.20;0.20;;;;;;;0.03;100.00;100103.50;5044233;28;20056;-81
2022/01/08 04:59:33;;;;;;;0.15;0.15;;;;;;;0.09;100.00;100113.28;5047938;28;20045;-80
2022/01/08 05:02:01;;;;;;;0.10;0.10;;;;;;;0.06;100.00;100121.78;5045737;28;20084;-80
2022/01/08 05:04:34;;;;;;;0.10;0.10;;;;;;;0.12;100.00;100120.06;5062802;28;20417;-80
2022/01/08 05:07:03;;;;;;;0.20;0.20;;;;;;;0.02;100.00;100111.75;5056472;28;20059;-81
2022/01/08 05:09:37;;;;;;;0.10;0.10;;;;;;;0.06;100.00;100129.81;5043145;28;20048;-81
2022/01/08 05:12:06;;;;;;;0.20;0.20;;;;;;;0.07;100.00;100128.78;5062950;28;20049;-81
2022/01/08 05:14:39;;;;;;;0.10;0.10;;;;;;;0.08;100.00;100129.56;5071230;28;20059;-81
2022/01/08 05:17:14;;;;;;;0.20;0.20;;;;;;;0.04;100.00;100136.41;5050873;28;20045;-81
2022/01/08 05:19:50;;;;;;;0.15;0.15;;;;;;;0.13;100.00;100135.88;5050669;28;20421;-81
2022/01/08 05:22:26;;;;;;;0.20;0.20;;;;;;;0.12;100.00;100144.16;5051107;28;20060;-81
2022/01/08 05:25:01;;;;;;;0.20;0.20;;;;;;;0.17;100.00;100138.94;5048222;28;20060;-81
2022/01/08 05:27:34;;;;;;;0.10;0.10;;;;;;;0.09;100.00;100137.38;5055802;28;20065;-81
2022/01/08 05:30:08;;;;;;;0.20;0.20;;;;;;;0.23;100.00;100132.69;5050763;28;20037;-81
2022/01/08 05:32:42;;;;;;;0.20;0.20;;;;;;;0.19;100.00;100144.06;5066325;28;20060;-81
2022/01/08 05:35:15;;;;;;;0.20;0.20;;;;;;;0.16;100.00;100142.66;5052198;28;20401;-81
2022/01/08 05:37:48;;;;;;;0.20;0.20;;;;;;;0.17;100.00;100134.41;5056363;28;20051;-81
2022/01/08 05:40:24;;;;;;;0.15;0.15;;;;;;;0.16;100.00;100135.44;5049385;28;20052;-80
2022/01/08 05:42:52;;;;;;;0.13;0.13;;;;;;;0.18;100.00;100129.88;5049897;28;20048;-80
2022/01/08 05:45:25;;;;;;;0.20;0.20;;;;;;;0.08;100.00;100133.06;5053285;28;20052;-81
2022/01/08 05:47:58;;;;;;;0.20;0.20;;;;;;;0.13;100.00;100130.53;5044150;28;20049;-81
2022/01/08 05:50:27;;;;;;;0.20;0.20;;;;;;;0.17;100.00;100137.06;5050918;28;20053;-81
2022/01/08 05:52:55;;;;;;;0.20;0.20;;;;;;;0.17;100.00;100125.56;5050747;28;20048;-81
2022/01/08 05:55:29;;;;;;;0.20;0.20;;;;;;;0.15;100.00;100131.16;5050384;28;20049;-81
2022/01/08 05:58:03;;;;;;;0.10;0.10;;;;;;;0.04;100.00;100129.19;5045819;28;20053;-81
2022/01/08 06:00:36;;;;;;;0.20;0.20;;;;;;;0.12;100.00;100144.16;5052397;28;20131;-81
2022/01/08 06:03:10;;;;;;;0.20;0.20;;;;;;;0.09;100.00;100141.91;5045660;28;20056;-81
2022/01/08 06:05:43;;;;;;;0.10;0.10;;;;;;;0.10;100.00;100143.56;5052369;28;20040;-81
2022/01/08 06:08:16;;;;;;;0.20;0.20;;;;;;;0.16;100.00;100146.13;5044364;28;20052;-81
2022/01/08 06:10:51;;;;;;;0.20;0.20;;;;;;;0.21;100.00;100147.31;5043698;28;20055;-81
2022/01/08 06:13:19;;;;;;;0.20;0.20;;;;;;;0.21;100.00;100152.69;5048667;28;20414;-82
2022/01/08 06:15:47;;;;;;;0.30;0.30;;;;;;;0.15;100.00;100168.59;5040427;28;20425;-82
2022/01/08 06:18:21;;;;;;;0.15;0.15;;;;;;;0.14;100.00;100164.28;5051741;28;20068;-80
2022/01/08 06:20:55;;;;;;;0.10;0.10;;;;;;;0.14;100.00;100158.94;5048062;28;20037;-81
2022/01/08 06:23:29;;;;;;;0.20;0.20;;;;;;;0.18;100.00;100164.66;5056461;28;20064;-80
2022/01/08 06:25:58;;;;;;;0.20;0.20;;;;;;;0.20;100.00;100170.59;5048192;28;20041;-81
2022/01/08 06:28:27;;;;;;;0.20;0.20;;;;;;;0.18;100.00;100164.66;5055939;28;20059;-81
2022/01/08 06:31:00;;;;;;;0.20;0.20;;;;;;;0.20;100.00;100173.28;5046174;28;20052;-81
2022/01/08 06:33:33;;;;;;;0.10;0.10;;;;;;;0.27;100.00;100170.53;5053679;28;20045;-80
2022/01/08 06:36:06;;;;;;;0.20;0.20;;;;;;;0.23;100.00;100178.19;5053451;28;20053;-82
2022/01/08 06:38:39;;;;;;;0.20;0.20;;;;;;;0.21;100.00;100179.44;5051141;28;20629;-81
2022/01/08 06:41:15;;;;;;;0.20;0.20;;;;;;;0.26;100.00;100177.75;5047757;28;20033;-81
2022/01/08 06:43:48;;;;;;;0.20;0.20;;;;;;;0.29;100.00;100179.97;5045292;28;20063;-80
2022/01/08 06:46:16;;;;;;;0.10;0.10;;;;;;;0.29;100.00;100177.31;5054016;28;20153;-81
2022/01/08 06:48:50;;;;;;;0.20;0.20;;;;;;;0.30;100.00;100184.28;5055707;28;20068;-81
2022/01/08 06:51:18;;;;;;;0.17;0.17;;;;;;;0.29;100.00;100189.84;5051592;28;20044;-81
2022/01/08 06:53:51;;;;;;;0.20;0.20;;;;;;;0.28;100.00;100196.25;5051184;28;20048;-81
2022/01/08 06:56:25;;;;;;;0.10;0.10;;;;;;;0.24;100.00;100182.50;5046817;28;20057;-81
2022/01/08 06:58:59;;;;;;;0.20;0.20;;;;;;;0.34;100.00;100195.34;5048502;28;20053;-81
2022/01/08 07:01:32;;;;;;;0.20;0.20;;;;;;;0.30;100.00;100196.84;5053922;28;20047;-80
2022/01/08 07:04:05;;;;;;;0.10;0.10;;;;;;;0.27;100.00;100200.78;5047734;28;20112;-80
2022/01/08 07:06:38;;;;;;;0.30;0.30;;;;;;;0.27;100.00;100189.25;5054533;28;20045;-80
2022/01/08 07:09:11;;;;;;;0.20;0.20;;;;;;;0.27;100.00;100192.75;5040093;28;20052;-81
2022/01/08 07:11:41;;;;;;;0.20;0.20;;;;;;;0.26;100.00;100182.28;5040972;28;20040;-81
2022/01/08 07:14:14;;;;;;;0.30;0.30;;;;;;;0.24;100.00;100195.88;5045561;28;20049;-81
2022/01/08 07:16:48;;;;;;;0.20;0.20;;;;;;;0.25;100.00;100196.69;5051498;28;20049;-81
2022/01/08 07:19:22;;;;;;;0.10;0.10;;;;;;;0.26;100.00;100201.00;5049242;28;20056;-81
2022/01/08 07:21:55;;;;;;;0.10;0.10;;;;;;;0.37;100.00;100204.78;5048968;28;20049;-80
2022/01/08 07:24:28;;;;;;;0.13;0.13;;;;;;;0.34;100.00;100208.75;5047619;28;20061;-80
2022/01/08 07:27:03;;;;;;;0.20;0.20;;;;;;;0.37;100.00;100196.75;5054135;28;20049;-81
2022/01/08 07:29:31;;;;;;;0.20;0.20;;;;;;;0.36;100.00;100206.66;5047870;28;20048;-81
2022/01/08 07:32:05;;;;;;;0.15;0.15;;;;;;;0.34;100.00;100209.53;5044568;28;20421;-80
2022/01/08 07:34:38;;;;;;;0.10;0.10;;;;;;;0.33;100.00;100205.25;5044240;28;20394;-82
2022/01/08 07:37:12;;;;;;;0.15;0.15;;;;;;;0.29;100.00;100196.03;5048890;28;20413;-80
2022/01/08 07:39:45;;;;;;;0.10;0.10;;;;;;;0.39;100.00;100200.84;5043424;28;20041;-81
2022/01/08 07:42:19;;;;;;;0.20;0.20;;;;;;;0.40;100.00;100193.63;5046005;28;21492;-81
2022/01/08 07:44:52;;;;;;;0.10;0.10;;;;;;;0.42;100.00;100189.69;5045797;28;20045;-80
2022/01/08 07:47:26;;;;;;;0.20;0.20;;;;;;;0.44;100.00;100198.34;5044534;28;20056;-80
2022/01/08 07:49:59;;;;;;;0.10;0.10;;;;;;;0.39;100.00;100195.50;5049934;28;21325;-82
2022/01/08 07:52:32;;;;;;;0.20;0.20;;;;;;;0.31;100.00;100182.41;5052448;28;20068;-81
2022/01/08 07:55:07;;;;;;;0.20;0.20;;;;;;;0.42;100.00;100187.03;5043491;28;20049;-82
2022/01/08 07:57:36;;;;;;;0.10;0.10;;;;;;;0.39;100.00;100179.44;5038723;28;20041;-80
2022/01/08 08:00:05;;;;;;;0.17;0.17;;;;;;;0.48;100.00;100204.88;5050248;28;20075;-81
2022/01/08 08:02:41;;;;;;;0.28;0.28;;;;;;;0.50;100.00;100199.28;5039787;28;20053;-80
2022/01/08 08:05:10;;;;;;;0.20;0.20;;;;;;;0.49;100.00;100192.28;5050041;28;20045;-76
2022/01/08 08:07:43;;;;;;;0.20;0.20;;;;;;;0.43;100.00;100185.16;5050432;28;20048;-81
2022/01/08 08:10:18;;;;;;;0.10;0.10;;;;;;;0.51;100.00;100187.53;5045982;28;20049;-82
2022/01/08 08:12:47;;;;;;;0.20;0.20;;;;;;;0.49;100.00;100178.91;5049718;28;20047;-80
2022/01/08 08:15:20;;;;;;;0.20;0.20;;;;;;;0.56;100.00;100181.50;5052496;28;20052;-79
2022/01/08 08:17:54;;;;;;;0.20;0.20;;;;;;;0.49;100.00;100182.41;5059780;28;20045;-82
2022/01/08 08:20:27;;;;;;;0.20;0.20;;;;;;;0.63;100.00;100177.69;5058214;28;20158;-81
2022/01/08 08:23:00;;;;;;;0.20;0.20;;;;;;;0.54;100.00;100183.56;5047182;28;20074;-80
2022/01/08 08:25:34;;;;;;;0.20;0.20;;;;;;;0.50;100.00;100178.69;5052304;28;20045;-80
2022/01/08 08:28:09;;;;;;;0.20;0.20;;;;;;;0.54;100.00;100179.06;5059970;28;20068;-80
2022/01/08 08:30:42;;;;;;;0.20;0.20;;;;;;;0.51;100.00;100168.78;5041442;28;20321;-81
2022/01/08 08:33:15;;;;;;;0.20;0.20;;;;;;;0.52;100.00;100165.06;5051625;28;20068;-80
2022/01/08 08:35:43;;;;;;;0.20;0.20;;;;;;;0.57;100.00;100165.22;5052440;28;20041;-82
2022/01/08 08:38:17;;;;;;;0.20;0.20;;;;;;;0.57;100.00;100164.41;5040933;28;20056;-84
2022/01/08 08:40:51;;;;;;;0.20;0.20;;;;;;;0.61;100.00;100161.03;5049344;28;20041;-79
2022/01/08 08:43:21;;;;;;;0.10;0.10;;;;;;;0.67;100.00;100151.28;5044650;28;20060;-81
2022/01/08 08:45:54;;;;;;;0.20;0.20;;;;;;;0.72;100.00;100156.78;5047276;28;20053;-80
2022/01/08 08:48:28;;;;;;;0.10;0.10;;;;;;;0.67;100.00;100154.75;5045257;28;20053;-81
2022/01/08 08:51:01;;;;;;;0.20;0.20;;;;;;;0.76;100.00;100157.13;5049882;28;20045;-80
2022/01/08 08:53:35;;;;;;;0.20;0.20;;;;;;;0.75;100.00;100164.34;5066760;28;20037;-80
2022/01/08 08:56:08;;;;;;;0.17;0.17;;;;;;;0.58;100.00;100147.28;5055394;28;20051;-81
2022/01/08 08:58:38;;;;;;;0.20;0.20;;;;;;;0.70;100.00;100150.81;5045491;28;20037;-79
2022/01/08 09:01:11;;;;;;;0.15;0.15;;;;;;;0.79;100.00;100156.69;5046282;28;20037;-81
2022/01/08 09:03:44;;;;;;;0.20;0.20;;;;;;;0.74;100.00;100157.34;5059469;28;20407;-82
2022/01/08 09:06:19;;;;;;;0.20;0.20;;;;;;;0.77;100.00;100164.94;5045274;28;20511;-81
2022/01/08 09:08:47;;;;;;;0.20;0.20;;;;;;;0.84;100.00;100154.97;5043676;28;20409;-80
2022/01/08 09:11:20;;;;;;;0.17;0.17;;;;;;;0.74;100.00;100161.91;5042149;28;20065;-80
2022/01/08 09:13:50;;;;;;;0.20;0.20;;;;;;;0.68;100.00;100150.25;5050212;28;20052;-81
2022/01/08 09:16:23;;;;;;;0.20;0.20;;;;;;;0.74;100.00;100154.69;5053344;28;20043;-81
2022/01/08 09:18:52;;;;;;;0.20;0.20;;;;;;;0.79;100.00;100157.50;5051434;28;20049;-88
2022/01/08 09:21:26;;;;;;;0.20;0.20;;;;;;;0.75;100.00;100150.16;5054451;28;20040;-81
2022/01/08 09:23:59;;;;;;;0.20;0.20;;;;;;;0.91;100.00;100162.06;5054395;28;20037;-81
2022/01/08 09:26:32;;;;;;;0.13;0.13;;;;;;;0.97;100.00;100158.50;5043860;28;20416;-81
2022/01/08 09:29:06;;;;;;;0.20;0.20;;;;;;;1.04;100.00;100161.03;5053448;28;20041;-80
2022/01/08 09:31:35;;;;;;;0.20;0.20;;;;;;;0.87;100.00;100155.53;5050284;28;20044;-81
2022/01/08 09:34:08;;;;;;;0.15;0.15;;;;;;;0.95;100.00;100161.41;5053574;28;20040;-81
2022/01/08 09:36:38;;;;;;;0.10;0.10;;;;;;;0.96;100.00;100160.34;5046483;28;20050;-80
2022/01/08 09:39:11;;;;;;;0.20;0.20;;;;;;;0.94;100.00;100151.72;5055056;28;20056;-81
2022/01/08 09:41:45;;;;;;;0.10;0.10;;;;;;;0.93;100.00;100147.41;5048543;28;20044;-82
2022/01/08 09:44:15;;;;;;;0.20;0.20;;;;;;;0.94;100.00;100149.03;5051896;28;20394;-81
2022/01/08 09:46:48;;;;;;;0.20;0.20;;;;;;;0.95;100.00;100150.69;5045832;28;20044;-83
2022/01/08 09:49:16;;;;;;;0.20;0.20;;;;;;;0.83;100.00;100118.50;5057935;28;20071;-80
2022/01/08 09:51:49;;;;;;;0.20;0.20;;;;;;;1.00;100.00;100147.31;5045953;28;20482;-80
2022/01/08 09:54:23;;;;;;;0.22;0.22;;;;;;;1.18;100.00;100149.09;5044434;28;20053;-80
2022/01/08 09:56:56;;;;;;;0.13;0.13;;;;;;;1.04;100.00;100150.31;5045521;28;20045;-80
2022/01/08 09:59:31;;;;;;;0.20;0.20;;;;;;;1.11;100.00;100151.06;5047254;28;20048;-81
2022/01/08 10:02:04;;;;;;;0.20;0.20;;;;;;;1.07;100.00;100156.06;5052411;28;20413;-80
2022/01/08 10:04:38;;;;;;;0.20;0.20;;;;;;;1.08;100.00;100151.50;5043625;28;20067;-80
2022/01/08 10:07:17;;;;;;;0.20;0.20;;;;;;;1.17;100.00;100158.16;5048016;28;20045;-80
2022/01/08 10:10:11;;;;;;;0.30;0.30;;;;;;;1.17;100.00;100155.50;5049293;28;20052;-81
2022/01/08 10:12:49;;;;;;;0.20;0.20;;;;;;;1.10;100.00;100168.19;5068013;28;20049;-80
2022/01/08 10:18:22;;;;;;;;;;;;;;;1.16;100.00;100160.03;5072654;28;20053;-80
2022/01/08 10:20:51;;;;;;;0.20;0.20;;;;;;;1.21;100.00;100159.34;5053479;28;20404;-81
2022/01/08 10:23:27;;;;;;;0.10;0.10;;;;;;;1.12;100.00;100150.81;5046019;28;20048;-80
2022/01/08 10:26:02;;;;;;;0.20;0.20;;;;;;;1.18;100.00;100154.44;5051078;28;20037;-81
2022/01/08 10:28:39;;;;;;;0.20;0.20;;;;;;;1.22;100.00;100160.19;5050737;28;20049;-80
2022/01/08 10:31:18;;;;;;;0.20;0.20;;;;;;;1.23;100.00;100159.94;5054468;28;20053;-80
2022/01/08 10:33:54;;;;;;;0.25;0.25;;;;;;;1.29;100.00;100161.69;5050603;28;20048;-80
2022/01/08 10:36:31;;;;;;;0.20;0.20;;;;;;;1.26;100.00;100161.34;5048591;28;20405;-81
2022/01/08 10:39:03;;;;;;;0.20;0.20;;;;;;;1.31;100.00;100166.81;5041749;28;20053;-82
2022/01/08 10:41:42;;;;;;;0.20;0.20;;;;;;;1.43;100.00;100158.78;5042996;28;20509;-83
2022/01/08 10:44:17;;;;;;;0.20;0.20;;;;;;;1.38;100.00;100156.78;5046797;28;20045;-80
2022/01/08 10:47:00;;;;;;;0.20;0.20;;;;;;;1.34;100.00;100156.47;5053480;28;20051;-81
2022/01/08 10:49:35;;;;;;;0.25;0.25;;;;;;;1.40;100.00;100152.03;5048836;28;20048;-80
2022/01/08 10:52:10;;;;;;;0.20;0.20;;;;;;;1.46;100.00;100156.44;5058369;28;20049;-81
2022/01/08 10:54:44;;;;;;;0.20;0.20;;;;;;;1.36;100.00;100140.13;5040132;28;20052;-82
2022/01/08 10:57:17;;;;;;;0.20;0.20;;;;;;;1.52;100.00;100142.13;5061204;28;20175;-82
2022/01/08 10:59:46;;;;;;;0.20;0.20;;;;;;;1.44;100.00;100149.72;5049241;28;20404;-83
2022/01/08 11:02:21;;;;;;;0.20;0.20;;;;;;;1.51;100.00;100145.03;5053829;28;20061;-81
2022/01/08 11:04:54;;;;;;;0.20;0.20;;;;;;;1.52;100.00;100141.31;5047717;28;20056;-81
2022/01/08 11:07:30;;;;;;;0.20;0.20;;;;;;;1.63;100.00;100139.66;5047085;28;20056;-82
2022/01/08 11:10:07;;;;;;;0.20;0.20;;;;;;;1.66;100.00;100144.59;5048642;28;20056;-81
2022/01/08 11:12:42;;;;;;;0.20;0.20;;;;;;;1.66;100.00;100139.22;5047483;28;20055;-83
2022/01/08 11:15:35;;;;;;;0.20;0.20;;;;;;;1.70;100.00;100132.34;5044262;28;20080;-82
2022/01/08 11:18:05;;;;;;;0.20;0.20;;;;;;;1.72;100.00;100137.47;5051107;28;20759;-83
2022/01/08 11:20:39;;;;;;;0.20;0.20;;;;;;;1.61;100.00;100129.16;5049655;28;20053;-84
2022/01/08 11:23:15;;;;;;;0.13;0.13;;;;;;;1.61;100.00;100114.97;5041819;28;20075;-83
2022/01/08 11:25:51;;;;;;;0.20;0.20;;;;;;;1.74;100.00;100116.56;5046347;28;20049;-84
2022/01/08 11:28:37;;;;;;;0.15;0.15;;;;;;;1.68;100.00;100124.50;5046672;28;20064;-83
2022/01/08 11:31:10;;;;;;;0.20;0.20;;;;;;;1.69;100.00;100109.25;5056249;28;20045;-83
2022/01/08 11:33:49;;;;;;;0.30;0.30;;;;;;;1.76;100.00;100104.56;5054108;28;20409;-84
2022/01/08 11:36:18;;;;;;;0.10;0.10;;;;;;;1.77;100.00;100113.41;5056596;28;20041;-84
2022/01/08 11:38:55;;;;;;;0.10;0.10;;;;;;;1.80;100.00;100104.91;5043113;28;20045;-80
2022/01/08 11:41:29;;;;;;;0.20;0.20;;;;;;;1.76;100.00;100088.47;5049313;28;21506;-80
2022/01/08 11:44:04;;;;;;;0.20;0.20;;;;;;;1.74;100.00;100087.91;5051345;28;20045;-80
2022/01/08 11:46:35;;;;;;;0.20;0.20;;;;;;;1.77;100.00;100078.53;5053235;28;20056;-84
2022/01/08 11:49:11;;;;;;;0.20;0.20;;;;;;;1.81;100.00;100072.47;5057913;28;20049;-81
2022/01/08 11:51:44;;;;;;;0.20;0.20;;;;;;;1.80;100.00;100076.19;5054916;28;20045;-81
2022/01/08 11:54:12;;;;;;;0.20;0.20;;;;;;;1.87;100.00;100070.72;5063194;28;20057;-81
2022/01/08 11:56:45;;;;;;;0.20;0.20;;;;;;;1.86;100.00;100061.03;5053743;28;20123;-82
2022/01/08 11:59:16;;;;;;;0.20;0.20;;;;;;;1.81;100.00;100061.75;5042941;28;20053;-81
2022/01/08 12:02:04;;;;;;;0.20;0.20;;;;;;;1.82;100.00;100049.13;5055247;28;20045;-81
2022/01/08 12:04:35;;;;;;;0.20;0.20;;;;;;;1.72;100.00;100052.44;5031990;28;20046;-80
2022/01/08 12:07:26;;;;;;;0.30;0.30;;;;;;;1.73;100.00;100047.88;5050772;28;20047;-82
2022/01/08 12:10:12;;;;;;;0.20;0.20;;;;;;;1.73;100.00;100043.34;5035148;28;20048;-82
2022/01/08 12:12:52;;;;;;;0.20;0.20;;;;;;;1.70;100.00;100043.81;5036339;28;20060;-81